sensor_id;sensor_type;location;lat;lon;timestamp;P1;durP1;ratioP1;P2;durP2;ratioP2
19905;SDS011;10115;50.906;4.438;2022-12-29T00:01:40;5.17;;;4.97;;
19905;SDS011;10115;50.906;4.438;2022-12-29T00:04:06;4.90;;;4.70;;
19905;SDS011;10115;50.906;4.438;2022-12-29T00:06:32;6.20;;;5.90;;
19905;SDS011;10115;50.906;4.438;2022-12-29T00:08:57;5.13;;;4.93;;
19905;SDS011;10115;50.906;4.438;2022-12-29T00:11:24;5.50;;;5.30;;
19905;SDS011;10115;50.906;4.438;2022-12-29T00:13:51;6.67;;;6.37;;
19905;SDS011;10115;50.906;4.438;2022-12-29T00:16:36;5.77;;;5.57;;
19905;SDS011;10115;50.906;4.438;2022-12-29T00:19:03;5.13;;;4.93;;
19905;SDS011;10115;50.906;4.438;2022-12-29T00:21:30;4.40;;;4.20;;
19905;SDS011;10115;50.906;4.438;2022-12-29T00:24:16;4.43;;;4.23;;
19905;SDS011;10115;50.906;4.438;2022-12-29T00:29:48;6.10;;;5.83;;
19905;SDS011;10115;50.906;4.438;2022-12-29T00:32:32;6.73;;;6.23;;
19905;SDS011;10115;50.906;4.438;2022-12-29T00:37:54;4.23;;;3.93;;
19905;SDS011;10115;50.906;4.438;2022-12-29T00:40:42;5.47;;;5.27;;
19905;SDS011;10115;50.906;4.438;2022-12-29T00:43:26;4.80;;;4.60;;
19905;SDS011;10115;50.906;4.438;2022-12-29T00:46:11;5.30;;;4.97;;
19905;SDS011;10115;50.906;4.438;2022-12-29T00:48:36;5.17;;;4.83;;
19905;SDS011;10115;50.906;4.438;2022-12-29T00:51:21;6.17;;;5.87;;
19905;SDS011;10115;50.906;4.438;2022-12-29T00:53:47;6.53;;;6.07;;
19905;SDS011;10115;50.906;4.438;2022-12-29T00:56:13;5.50;;;5.20;;
19905;SDS011;10115;50.906;4.438;2022-12-29T00:58:38;6.33;;;6.03;;
19905;SDS011;10115;50.906;4.438;2022-12-29T01:01:05;7.10;;;6.37;;
19905;SDS011;10115;50.906;4.438;2022-12-29T01:03:33;6.70;;;6.20;;
19905;SDS011;10115;50.906;4.438;2022-12-29T01:06:01;5.93;;;5.53;;
19905;SDS011;10115;50.906;4.438;2022-12-29T01:08:30;6.30;;;6.00;;
19905;SDS011;10115;50.906;4.438;2022-12-29T01:11:00;7.00;;;6.70;;
19905;SDS011;10115;50.906;4.438;2022-12-29T01:13:33;6.27;;;5.97;;
19905;SDS011;10115;50.906;4.438;2022-12-29T01:15:59;6.87;;;6.47;;
19905;SDS011;10115;50.906;4.438;2022-12-29T01:18:26;6.33;;;6.00;;
19905;SDS011;10115;50.906;4.438;2022-12-29T01:21:02;7.03;;;6.73;;
19905;SDS011;10115;50.906;4.438;2022-12-29T01:23:29;9.80;;;6.27;;
19905;SDS011;10115;50.906;4.438;2022-12-29T01:25:56;7.43;;;7.00;;
19905;SDS011;10115;50.906;4.438;2022-12-29T01:28:22;4.43;;;4.23;;
19905;SDS011;10115;50.906;4.438;2022-12-29T01:30:48;4.77;;;4.57;;
19905;SDS011;10115;50.906;4.438;2022-12-29T01:33:14;6.23;;;6.03;;
19905;SDS011;10115;50.906;4.438;2022-12-29T01:35:39;7.10;;;6.70;;
19905;SDS011;10115;50.906;4.438;2022-12-29T01:38:05;7.20;;;6.87;;
19905;SDS011;10115;50.906;4.438;2022-12-29T01:40:32;7.03;;;6.73;;
19905;SDS011;10115;50.906;4.438;2022-12-29T01:42:58;6.77;;;6.43;;
19905;SDS011;10115;50.906;4.438;2022-12-29T01:45:24;6.70;;;6.30;;
19905;SDS011;10115;50.906;4.438;2022-12-29T01:47:53;5.87;;;5.63;;
19905;SDS011;10115;50.906;4.438;2022-12-29T01:55:56;6.90;;;6.60;;
19905;SDS011;10115;50.906;4.438;2022-12-29T01:58:28;5.77;;;5.27;;
19905;SDS011;10115;50.906;4.438;2022-12-29T02:00:57;6.47;;;6.17;;
19905;SDS011;10115;50.906;4.438;2022-12-29T02:03:24;6.53;;;6.23;;
19905;SDS011;10115;50.906;4.438;2022-12-29T02:05:58;6.83;;;6.53;;
19905;SDS011;10115;50.906;4.438;2022-12-29T02:08:41;6.97;;;6.67;;
19905;SDS011;10115;50.906;4.438;2022-12-29T02:11:10;6.13;;;5.83;;
19905;SDS011;10115;50.906;4.438;2022-12-29T02:13:37;6.33;;;6.13;;
19905;SDS011;10115;50.906;4.438;2022-12-29T02:19:16;4.83;;;4.63;;
19905;SDS011;10115;50.906;4.438;2022-12-29T02:27:31;6.67;;;6.37;;
19905;SDS011;10115;50.906;4.438;2022-12-29T02:30:16;5.70;;;5.27;;
19905;SDS011;10115;50.906;4.438;2022-12-29T02:41:26;6.10;;;5.77;;
19905;SDS011;10115;50.906;4.438;2022-12-29T02:47:04;6.03;;;5.73;;
19905;SDS011;10115;50.906;4.438;2022-12-29T02:52:30;5.20;;;5.00;;
19905;SDS011;10115;50.906;4.438;2022-12-29T02:55:06;4.90;;;4.70;;
19905;SDS011;10115;50.906;4.438;2022-12-29T02:57:34;5.10;;;4.90;;
19905;SDS011;10115;50.906;4.438;2022-12-29T03:00:05;4.87;;;4.67;;
19905;SDS011;10115;50.906;4.438;2022-12-29T03:09:03;7.40;;;6.03;;
19905;SDS011;10115;50.906;4.438;2022-12-29T03:11:09;5.87;;;5.67;;
19905;SDS011;10115;50.906;4.438;2022-12-29T03:14:02;7.20;;;6.80;;
19905;SDS011;10115;50.906;4.438;2022-12-29T03:16:59;6.20;;;5.90;;
19905;SDS011;10115;50.906;4.438;2022-12-29T03:19:38;6.53;;;6.13;;
19905;SDS011;10115;50.906;4.438;2022-12-29T03:22:12;11.33;;;5.47;;
19905;SDS011;10115;50.906;4.438;2022-12-29T03:24:57;6.27;;;6.00;;
19905;SDS011;10115;50.906;4.438;2022-12-29T03:27:29;7.23;;;6.63;;
19905;SDS011;10115;50.906;4.438;2022-12-29T03:30:10;5.60;;;5.40;;
19905;SDS011;10115;50.906;4.438;2022-12-29T03:32:38;5.00;;;4.80;;
19905;SDS011;10115;50.906;4.438;2022-12-29T03:35:19;6.17;;;5.17;;
19905;SDS011;10115;50.906;4.438;2022-12-29T03:37:55;5.30;;;5.10;;
19905;SDS011;10115;50.906;4.438;2022-12-29T03:40:27;6.00;;;5.70;;
19905;SDS011;10115;50.906;4.438;2022-12-29T03:42:54;5.60;;;5.10;;
19905;SDS011;10115;50.906;4.438;2022-12-29T03:45:20;5.17;;;4.97;;
19905;SDS011;10115;50.906;4.438;2022-12-29T03:47:46;5.13;;;4.93;;
19905;SDS011;10115;50.906;4.438;2022-12-29T03:50:12;5.70;;;5.33;;
19905;SDS011;10115;50.906;4.438;2022-12-29T03:52:38;5.63;;;5.13;;
19905;SDS011;10115;50.906;4.438;2022-12-29T03:55:04;4.77;;;4.57;;
19905;SDS011;10115;50.906;4.438;2022-12-29T03:57:31;5.60;;;5.20;;
19905;SDS011;10115;50.906;4.438;2022-12-29T03:59:56;4.17;;;3.97;;
19905;SDS011;10115;50.906;4.438;2022-12-29T04:02:22;4.93;;;4.60;;
19905;SDS011;10115;50.906;4.438;2022-12-29T04:04:48;5.10;;;4.90;;
19905;SDS011;10115;50.906;4.438;2022-12-29T04:07:14;5.27;;;5.07;;
19905;SDS011;10115;50.906;4.438;2022-12-29T04:09:40;4.93;;;4.73;;
19905;SDS011;10115;50.906;4.438;2022-12-29T04:12:06;4.73;;;4.43;;
19905;SDS011;10115;50.906;4.438;2022-12-29T04:14:31;3.80;;;3.70;;
19905;SDS011;10115;50.906;4.438;2022-12-29T04:16:57;4.60;;;4.27;;
19905;SDS011;10115;50.906;4.438;2022-12-29T04:19:23;4.50;;;4.30;;
19905;SDS011;10115;50.906;4.438;2022-12-29T04:21:48;4.10;;;4.00;;
19905;SDS011;10115;50.906;4.438;2022-12-29T04:24:14;5.27;;;4.80;;
19905;SDS011;10115;50.906;4.438;2022-12-29T04:26:40;5.27;;;4.93;;
19905;SDS011;10115;50.906;4.438;2022-12-29T04:29:06;7.20;;;5.43;;
19905;SDS011;10115;50.906;4.438;2022-12-29T04:31:32;6.07;;;5.47;;
19905;SDS011;10115;50.906;4.438;2022-12-29T04:33:58;5.13;;;4.93;;
19905;SDS011;10115;50.906;4.438;2022-12-29T04:36:25;5.77;;;5.57;;
19905;SDS011;10115;50.906;4.438;2022-12-29T04:38:51;6.93;;;6.63;;
19905;SDS011;10115;50.906;4.438;2022-12-29T04:41:16;7.93;;;7.57;;
19905;SDS011;10115;50.906;4.438;2022-12-29T04:43:42;8.03;;;7.63;;
19905;SDS011;10115;50.906;4.438;2022-12-29T04:46:08;7.00;;;6.50;;
19905;SDS011;10115;50.906;4.438;2022-12-29T04:48:34;7.27;;;6.97;;
19905;SDS011;10115;50.906;4.438;2022-12-29T04:50:59;7.73;;;6.40;;
19905;SDS011;10115;50.906;4.438;2022-12-29T04:53:25;7.60;;;7.20;;
19905;SDS011;10115;50.906;4.438;2022-12-29T04:55:51;7.00;;;6.70;;
19905;SDS011;10115;50.906;4.438;2022-12-29T04:58:18;5.50;;;5.30;;
19905;SDS011;10115;50.906;4.438;2022-12-29T05:00:44;6.23;;;5.70;;
19905;SDS011;10115;50.906;4.438;2022-12-29T05:03:10;5.30;;;5.10;;
19905;SDS011;10115;50.906;4.438;2022-12-29T05:05:36;5.33;;;5.13;;
19905;SDS011;10115;50.906;4.438;2022-12-29T05:08:01;4.70;;;4.50;;
19905;SDS011;10115;50.906;4.438;2022-12-29T05:10:27;4.23;;;4.03;;
19905;SDS011;10115;50.906;4.438;2022-12-29T05:12:53;4.20;;;4.00;;
19905;SDS011;10115;50.906;4.438;2022-12-29T05:15:19;4.67;;;4.37;;
19905;SDS011;10115;50.906;4.438;2022-12-29T05:17:45;8.07;;;4.37;;
19905;SDS011;10115;50.906;4.438;2022-12-29T05:20:10;4.33;;;4.13;;
19905;SDS011;10115;50.906;4.438;2022-12-29T05:22:36;3.90;;;3.80;;
19905;SDS011;10115;50.906;4.438;2022-12-29T05:25:02;5.33;;;3.97;;
19905;SDS011;10115;50.906;4.438;2022-12-29T05:27:28;4.10;;;3.87;;
19905;SDS011;10115;50.906;4.438;2022-12-29T05:29:54;3.73;;;3.53;;
19905;SDS011;10115;50.906;4.438;2022-12-29T05:32:19;7.80;;;7.50;;
19905;SDS011;10115;50.906;4.438;2022-12-29T05:34:45;7.77;;;7.47;;
19905;SDS011;10115;50.906;4.438;2022-12-29T05:37:11;6.90;;;5.73;;
19905;SDS011;10115;50.906;4.438;2022-12-29T05:39:37;6.80;;;6.17;;
19905;SDS011;10115;50.906;4.438;2022-12-29T05:42:02;7.23;;;6.73;;
19905;SDS011;10115;50.906;4.438;2022-12-29T05:44:28;7.03;;;6.60;;
19905;SDS011;10115;50.906;4.438;2022-12-29T05:46:54;6.53;;;6.23;;
19905;SDS011;10115;50.906;4.438;2022-12-29T05:49:19;7.93;;;7.27;;
19905;SDS011;10115;50.906;4.438;2022-12-29T05:51:45;7.47;;;6.77;;
19905;SDS011;10115;50.906;4.438;2022-12-29T05:54:11;6.47;;;6.27;;
19905;SDS011;10115;50.906;4.438;2022-12-29T05:56:37;7.67;;;7.37;;
19905;SDS011;10115;50.906;4.438;2022-12-29T05:59:02;6.07;;;5.77;;
19905;SDS011;10115;50.906;4.438;2022-12-29T06:01:28;7.00;;;6.70;;
19905;SDS011;10115;50.906;4.438;2022-12-29T06:03:53;6.30;;;6.03;;
19905;SDS011;10115;50.906;4.438;2022-12-29T06:06:19;5.27;;;5.07;;
19905;SDS011;10115;50.906;4.438;2022-12-29T06:08:45;5.23;;;4.93;;
19905;SDS011;10115;50.906;4.438;2022-12-29T06:11:10;4.10;;;4.00;;
19905;SDS011;10115;50.906;4.438;2022-12-29T06:13:36;14.00;;;6.30;;
19905;SDS011;10115;50.906;4.438;2022-12-29T06:16:02;7.33;;;6.83;;
19905;SDS011;10115;50.906;4.438;2022-12-29T06:18:28;6.50;;;6.20;;
19905;SDS011;10115;50.906;4.438;2022-12-29T06:20:54;9.27;;;8.50;;
19905;SDS011;10115;50.906;4.438;2022-12-29T06:23:23;7.73;;;7.03;;
19905;SDS011;10115;50.906;4.438;2022-12-29T06:25:49;15.50;;;8.87;;
19905;SDS011;10115;50.906;4.438;2022-12-29T06:28:15;8.57;;;7.87;;
19905;SDS011;10115;50.906;4.438;2022-12-29T06:30:43;6.23;;;5.63;;
19905;SDS011;10115;50.906;4.438;2022-12-29T06:33:10;6.67;;;6.03;;
19905;SDS011;10115;50.906;4.438;2022-12-29T06:35:36;6.43;;;6.23;;
19905;SDS011;10115;50.906;4.438;2022-12-29T06:38:02;6.77;;;6.47;;
19905;SDS011;10115;50.906;4.438;2022-12-29T06:40:28;8.50;;;7.80;;
19905;SDS011;10115;50.906;4.438;2022-12-29T06:42:53;6.57;;;6.27;;
19905;SDS011;10115;50.906;4.438;2022-12-29T06:45:19;8.00;;;7.43;;
19905;SDS011;10115;50.906;4.438;2022-12-29T06:47:45;7.37;;;6.67;;
19905;SDS011;10115;50.906;4.438;2022-12-29T06:50:10;8.30;;;7.53;;
19905;SDS011;10115;50.906;4.438;2022-12-29T06:52:36;9.50;;;8.63;;
19905;SDS011;10115;50.906;4.438;2022-12-29T06:55:02;8.60;;;8.20;;
19905;SDS011;10115;50.906;4.438;2022-12-29T06:57:28;7.37;;;7.07;;
19905;SDS011;10115;50.906;4.438;2022-12-29T06:59:53;7.43;;;7.03;;
19905;SDS011;10115;50.906;4.438;2022-12-29T07:02:22;7.77;;;7.17;;
19905;SDS011;10115;50.906;4.438;2022-12-29T07:04:50;7.33;;;7.03;;
19905;SDS011;10115;50.906;4.438;2022-12-29T07:07:17;10.10;;;6.90;;
19905;SDS011;10115;50.906;4.438;2022-12-29T07:09:43;31.03;;;8.47;;
19905;SDS011;10115;50.906;4.438;2022-12-29T07:12:09;7.73;;;7.33;;
19905;SDS011;10115;50.906;4.438;2022-12-29T07:14:35;7.87;;;7.10;;
19905;SDS011;10115;50.906;4.438;2022-12-29T07:17:01;7.70;;;7.13;;
19905;SDS011;10115;50.906;4.438;2022-12-29T07:19:30;13.27;;;7.50;;
19905;SDS011;10115;50.906;4.438;2022-12-29T07:21:56;8.47;;;7.63;;
19905;SDS011;10115;50.906;4.438;2022-12-29T07:24:22;8.40;;;7.90;;
19905;SDS011;10115;50.906;4.438;2022-12-29T07:26:47;7.47;;;7.17;;
19905;SDS011;10115;50.906;4.438;2022-12-29T07:29:13;7.77;;;7.33;;
19905;SDS011;10115;50.906;4.438;2022-12-29T07:31:39;6.73;;;6.47;;
19905;SDS011;10115;50.906;4.438;2022-12-29T07:34:04;6.47;;;6.23;;
19905;SDS011;10115;50.906;4.438;2022-12-29T07:36:30;6.60;;;6.40;;
19905;SDS011;10115;50.906;4.438;2022-12-29T07:38:56;8.67;;;7.83;;
19905;SDS011;10115;50.906;4.438;2022-12-29T07:41:21;7.47;;;6.97;;
19905;SDS011;10115;50.906;4.438;2022-12-29T07:43:47;7.20;;;6.83;;
19905;SDS011;10115;50.906;4.438;2022-12-29T07:46:13;8.40;;;7.80;;
19905;SDS011;10115;50.906;4.438;2022-12-29T07:48:40;5.47;;;5.17;;
19905;SDS011;10115;50.906;4.438;2022-12-29T07:51:05;9.43;;;6.50;;
19905;SDS011;10115;50.906;4.438;2022-12-29T07:53:31;7.93;;;7.43;;
19905;SDS011;10115;50.906;4.438;2022-12-29T07:55:57;11.23;;;7.60;;
19905;SDS011;10115;50.906;4.438;2022-12-29T07:58:23;7.30;;;7.00;;
19905;SDS011;10115;50.906;4.438;2022-12-29T08:00:52;8.47;;;7.97;;
19905;SDS011;10115;50.906;4.438;2022-12-29T08:03:21;8.40;;;8.00;;
19905;SDS011;10115;50.906;4.438;2022-12-29T08:05:47;7.77;;;7.30;;
19905;SDS011;10115;50.906;4.438;2022-12-29T08:08:13;7.70;;;7.40;;
19905;SDS011;10115;50.906;4.438;2022-12-29T08:10:39;9.03;;;8.37;;
19905;SDS011;10115;50.906;4.438;2022-12-29T08:13:05;9.47;;;8.93;;
19905;SDS011;10115;50.906;4.438;2022-12-29T08:15:31;7.93;;;7.63;;
19905;SDS011;10115;50.906;4.438;2022-12-29T08:17:56;8.27;;;7.83;;
19905;SDS011;10115;50.906;4.438;2022-12-29T08:20:22;8.30;;;7.70;;
19905;SDS011;10115;50.906;4.438;2022-12-29T08:22:48;9.23;;;8.37;;
19905;SDS011;10115;50.906;4.438;2022-12-29T08:25:13;8.53;;;7.83;;
19905;SDS011;10115;50.906;4.438;2022-12-29T08:27:39;8.73;;;8.23;;
19905;SDS011;10115;50.906;4.438;2022-12-29T08:30:05;7.63;;;7.23;;
19905;SDS011;10115;50.906;4.438;2022-12-29T08:32:31;7.90;;;7.50;;
19905;SDS011;10115;50.906;4.438;2022-12-29T08:34:57;7.80;;;7.20;;
19905;SDS011;10115;50.906;4.438;2022-12-29T08:37:23;9.07;;;8.67;;
19905;SDS011;10115;50.906;4.438;2022-12-29T08:39:49;8.97;;;8.40;;
19905;SDS011;10115;50.906;4.438;2022-12-29T08:42:15;7.53;;;7.23;;
19905;SDS011;10115;50.906;4.438;2022-12-29T08:44:41;8.07;;;7.57;;
19905;SDS011;10115;50.906;4.438;2022-12-29T08:47:06;12.03;;;7.80;;
19905;SDS011;10115;50.906;4.438;2022-12-29T08:49:33;10.87;;;9.80;;
19905;SDS011;10115;50.906;4.438;2022-12-29T08:51:59;9.33;;;8.40;;
19905;SDS011;10115;50.906;4.438;2022-12-29T08:54:25;8.40;;;8.10;;
19905;SDS011;10115;50.906;4.438;2022-12-29T08:56:50;10.80;;;9.47;;
19905;SDS011;10115;50.906;4.438;2022-12-29T08:59:16;9.07;;;8.63;;
19905;SDS011;10115;50.906;4.438;2022-12-29T09:01:42;9.27;;;8.47;;
19905;SDS011;10115;50.906;4.438;2022-12-29T09:04:08;9.07;;;8.67;;
19905;SDS011;10115;50.906;4.438;2022-12-29T09:06:34;8.73;;;8.33;;
19905;SDS011;10115;50.906;4.438;2022-12-29T09:09:00;8.53;;;8.13;;
19905;SDS011;10115;50.906;4.438;2022-12-29T09:11:26;9.70;;;9.20;;
19905;SDS011;10115;50.906;4.438;2022-12-29T09:13:52;9.57;;;9.03;;
19905;SDS011;10115;50.906;4.438;2022-12-29T09:16:19;9.93;;;9.10;;
19905;SDS011;10115;50.906;4.438;2022-12-29T09:18:48;7.20;;;6.90;;
19905;SDS011;10115;50.906;4.438;2022-12-29T09:21:14;8.63;;;7.83;;
19905;SDS011;10115;50.906;4.438;2022-12-29T09:23:40;8.53;;;8.03;;
19905;SDS011;10115;50.906;4.438;2022-12-29T09:26:06;9.30;;;8.80;;
19905;SDS011;10115;50.906;4.438;2022-12-29T09:28:32;7.80;;;7.40;;
19905;SDS011;10115;50.906;4.438;2022-12-29T09:30:58;9.03;;;8.13;;
19905;SDS011;10115;50.906;4.438;2022-12-29T09:33:25;8.00;;;7.60;;
19905;SDS011;10115;50.906;4.438;2022-12-29T09:36:00;9.13;;;8.47;;
19905;SDS011;10115;50.906;4.438;2022-12-29T09:38:26;10.90;;;8.77;;
19905;SDS011;10115;50.906;4.438;2022-12-29T09:40:54;7.67;;;7.13;;
19905;SDS011;10115;50.906;4.438;2022-12-29T09:43:27;8.87;;;8.27;;
19905;SDS011;10115;50.906;4.438;2022-12-29T09:46:43;8.13;;;7.50;;
19905;SDS011;10115;50.906;4.438;2022-12-29T09:49:17;7.90;;;7.60;;
19905;SDS011;10115;50.906;4.438;2022-12-29T09:51:52;9.73;;;7.50;;
19905;SDS011;10115;50.906;4.438;2022-12-29T09:57:23;10.23;;;9.63;;
19905;SDS011;10115;50.906;4.438;2022-12-29T10:00:11;8.13;;;7.60;;
19905;SDS011;10115;50.906;4.438;2022-12-29T10:02:43;8.53;;;8.07;;
19905;SDS011;10115;50.906;4.438;2022-12-29T10:05:44;8.53;;;7.83;;
19905;SDS011;10115;50.906;4.438;2022-12-29T10:19:26;8.93;;;7.67;;
19905;SDS011;10115;50.906;4.438;2022-12-29T10:22:17;22.87;;;8.27;;
19905;SDS011;10115;50.906;4.438;2022-12-29T10:24:46;9.67;;;8.77;;
19905;SDS011;10115;50.906;4.438;2022-12-29T10:27:14;9.03;;;8.43;;
19905;SDS011;10115;50.906;4.438;2022-12-29T10:29:48;8.23;;;7.43;;
19905;SDS011;10115;50.906;4.438;2022-12-29T10:35:20;7.80;;;7.27;;
19905;SDS011;10115;50.906;4.438;2022-12-29T10:40:45;9.07;;;8.37;;
19905;SDS011;10115;50.906;4.438;2022-12-29T10:45:54;6.10;;;5.80;;
19905;SDS011;10115;50.906;4.438;2022-12-29T10:48:32;7.53;;;7.23;;
19905;SDS011;10115;50.906;4.438;2022-12-29T10:51:00;8.50;;;7.93;;
19905;SDS011;10115;50.906;4.438;2022-12-29T10:56:04;9.77;;;9.23;;
19905;SDS011;10115;50.906;4.438;2022-12-29T10:58:40;20.07;;;9.50;;
19905;SDS011;10115;50.906;4.438;2022-12-29T11:01:07;12.63;;;10.03;;
19905;SDS011;10115;50.906;4.438;2022-12-29T11:03:42;8.70;;;8.03;;
19905;SDS011;10115;50.906;4.438;2022-12-29T11:06:36;9.07;;;8.40;;
19905;SDS011;10115;50.906;4.438;2022-12-29T11:09:09;7.17;;;6.70;;
19905;SDS011;10115;50.906;4.438;2022-12-29T11:11:40;8.87;;;8.23;;
19905;SDS011;10115;50.906;4.438;2022-12-29T11:14:13;18.23;;;16.53;;
19905;SDS011;10115;50.906;4.438;2022-12-29T11:16:43;8.23;;;7.43;;
19905;SDS011;10115;50.906;4.438;2022-12-29T11:19:19;9.90;;;9.30;;
19905;SDS011;10115;50.906;4.438;2022-12-29T11:21:47;8.60;;;8.20;;
19905;SDS011;10115;50.906;4.438;2022-12-29T11:24:23;11.07;;;10.13;;
19905;SDS011;10115;50.906;4.438;2022-12-29T11:26:52;9.00;;;8.30;;
19905;SDS011;10115;50.906;4.438;2022-12-29T11:29:29;32.97;;;8.43;;
19905;SDS011;10115;50.906;4.438;2022-12-29T11:32:16;8.63;;;7.93;;
19905;SDS011;10115;50.906;4.438;2022-12-29T11:34:44;8.30;;;7.80;;
19905;SDS011;10115;50.906;4.438;2022-12-29T11:37:17;10.80;;;9.87;;
19905;SDS011;10115;50.906;4.438;2022-12-29T11:40:06;9.80;;;8.27;;
19905;SDS011;10115;50.906;4.438;2022-12-29T11:42:52;10.20;;;9.40;;
19905;SDS011;10115;50.906;4.438;2022-12-29T11:45:20;13.17;;;8.87;;
19905;SDS011;10115;50.906;4.438;2022-12-29T11:48:01;8.47;;;8.10;;
19905;SDS011;10115;50.906;4.438;2022-12-29T11:50:33;23.33;;;11.37;;
19905;SDS011;10115;50.906;4.438;2022-12-29T11:55:52;13.57;;;10.17;;
19905;SDS011;10115;50.906;4.438;2022-12-29T11:58:28;9.80;;;9.30;;
19905;SDS011;10115;50.906;4.438;2022-12-29T12:01:00;8.83;;;8.37;;
19905;SDS011;10115;50.906;4.438;2022-12-29T12:03:32;8.77;;;8.30;;
19905;SDS011;10115;50.906;4.438;2022-12-29T12:06:02;10.80;;;10.03;;
19905;SDS011;10115;50.906;4.438;2022-12-29T12:08:46;10.03;;;9.37;;
19905;SDS011;10115;50.906;4.438;2022-12-29T12:14:06;9.63;;;9.13;;
19905;SDS011;10115;50.906;4.438;2022-12-29T12:16:49;10.70;;;9.90;;
19905;SDS011;10115;50.906;4.438;2022-12-29T12:21:59;9.50;;;8.93;;
19905;SDS011;10115;50.906;4.438;2022-12-29T12:24:44;8.93;;;8.47;;
19905;SDS011;10115;50.906;4.438;2022-12-29T12:30:12;6.17;;;5.87;;
19905;SDS011;10115;50.906;4.438;2022-12-29T12:32:52;6.20;;;5.80;;
19905;SDS011;10115;50.906;4.438;2022-12-29T12:57:44;5.07;;;4.77;;
19905;SDS011;10115;50.906;4.438;2022-12-29T13:00:15;7.50;;;7.10;;
19905;SDS011;10115;50.906;4.438;2022-12-29T13:24:56;4.77;;;4.57;;
19905;SDS011;10115;50.906;4.438;2022-12-29T13:30:02;6.47;;;5.80;;
19905;SDS011;10115;50.906;4.438;2022-12-29T13:38:36;4.57;;;4.33;;
19905;SDS011;10115;50.906;4.438;2022-12-29T13:41:10;4.37;;;4.07;;
19905;SDS011;10115;50.906;4.438;2022-12-29T13:43:39;6.10;;;4.40;;
19905;SDS011;10115;50.906;4.438;2022-12-29T13:46:25;5.83;;;4.80;;
19905;SDS011;10115;50.906;4.438;2022-12-29T13:49:02;3.90;;;3.70;;
19905;SDS011;10115;50.906;4.438;2022-12-29T13:51:33;4.30;;;4.00;;
19905;SDS011;10115;50.906;4.438;2022-12-29T13:57:35;7.17;;;4.73;;
19905;SDS011;10115;50.906;4.438;2022-12-29T14:00:21;7.70;;;5.67;;
19905;SDS011;10115;50.906;4.438;2022-12-29T14:03:42;4.13;;;3.87;;
19905;SDS011;10115;50.906;4.438;2022-12-29T14:05:45;4.40;;;4.10;;
19905;SDS011;10115;50.906;4.438;2022-12-29T14:08:37;4.30;;;3.93;;
19905;SDS011;10115;50.906;4.438;2022-12-29T14:11:07;15.03;;;7.00;;
19905;SDS011;10115;50.906;4.438;2022-12-29T14:13:39;4.77;;;4.43;;
19905;SDS011;10115;50.906;4.438;2022-12-29T14:16:08;5.50;;;4.97;;
19905;SDS011;10115;50.906;4.438;2022-12-29T14:18:49;7.43;;;4.40;;
19905;SDS011;10115;50.906;4.438;2022-12-29T14:23:42;8.10;;;4.67;;
19905;SDS011;10115;50.906;4.438;2022-12-29T14:26:11;4.27;;;4.07;;
19905;SDS011;10115;50.906;4.438;2022-12-29T14:28:41;11.67;;;4.90;;
19905;SDS011;10115;50.906;4.438;2022-12-29T14:33:40;15.83;;;9.97;;
19905;SDS011;10115;50.906;4.438;2022-12-29T14:36:32;4.63;;;4.33;;
19905;SDS011;10115;50.906;4.438;2022-12-29T14:38:58;5.10;;;4.70;;
19905;SDS011;10115;50.906;4.438;2022-12-29T14:43:51;13.47;;;5.30;;
19905;SDS011;10115;50.906;4.438;2022-12-29T14:46:20;4.50;;;4.10;;
19905;SDS011;10115;50.906;4.438;2022-12-29T14:48:46;4.13;;;3.93;;
19905;SDS011;10115;50.906;4.438;2022-12-29T14:51:16;5.23;;;4.93;;
19905;SDS011;10115;50.906;4.438;2022-12-29T14:53:52;7.03;;;4.80;;
19905;SDS011;10115;50.906;4.438;2022-12-29T14:56:18;4.90;;;4.20;;
19905;SDS011;10115;50.906;4.438;2022-12-29T14:58:54;4.60;;;4.20;;
19905;SDS011;10115;50.906;4.438;2022-12-29T15:01:45;3.53;;;3.43;;
19905;SDS011;10115;50.906;4.438;2022-12-29T15:04:22;6.20;;;5.60;;
19905;SDS011;10115;50.906;4.438;2022-12-29T15:06:54;4.73;;;4.50;;
19905;SDS011;10115;50.906;4.438;2022-12-29T15:12:04;3.33;;;3.23;;
19905;SDS011;10115;50.906;4.438;2022-12-29T15:14:33;3.07;;;2.97;;
19905;SDS011;10115;50.906;4.438;2022-12-29T15:17:21;4.70;;;4.40;;
19905;SDS011;10115;50.906;4.438;2022-12-29T15:19:50;8.83;;;6.57;;
19905;SDS011;10115;50.906;4.438;2022-12-29T15:22:16;7.20;;;4.33;;
19905;SDS011;10115;50.906;4.438;2022-12-29T15:24:42;4.20;;;3.87;;
19905;SDS011;10115;50.906;4.438;2022-12-29T15:27:15;3.87;;;3.50;;
19905;SDS011;10115;50.906;4.438;2022-12-29T15:29:44;4.20;;;3.90;;
19905;SDS011;10115;50.906;4.438;2022-12-29T15:34:46;3.80;;;3.47;;
19905;SDS011;10115;50.906;4.438;2022-12-29T15:37:28;3.40;;;3.30;;
19905;SDS011;10115;50.906;4.438;2022-12-29T15:39:58;3.70;;;3.60;;
19905;SDS011;10115;50.906;4.438;2022-12-29T15:45:15;13.27;;;4.13;;
19905;SDS011;10115;50.906;4.438;2022-12-29T15:47:41;6.20;;;5.60;;
19905;SDS011;10115;50.906;4.438;2022-12-29T15:50:20;8.33;;;4.20;;
19905;SDS011;10115;50.906;4.438;2022-12-29T15:52:50;4.00;;;3.80;;
19905;SDS011;10115;50.906;4.438;2022-12-29T15:55:34;5.80;;;5.30;;
19905;SDS011;10115;50.906;4.438;2022-12-29T15:58:02;7.50;;;3.47;;
19905;SDS011;10115;50.906;4.438;2022-12-29T16:00:31;4.77;;;4.47;;
19905;SDS011;10115;50.906;4.438;2022-12-29T16:03:00;4.63;;;4.30;;
19905;SDS011;10115;50.906;4.438;2022-12-29T16:05:36;4.97;;;4.57;;
19905;SDS011;10115;50.906;4.438;2022-12-29T16:08:15;5.97;;;5.40;;
19905;SDS011;10115;50.906;4.438;2022-12-29T16:10:45;5.93;;;5.33;;
19905;SDS011;10115;50.906;4.438;2022-12-29T16:15:52;4.00;;;3.70;;
19905;SDS011;10115;50.906;4.438;2022-12-29T16:18:27;7.87;;;3.70;;
19905;SDS011;10115;50.906;4.438;2022-12-29T16:20:57;6.70;;;4.60;;
19905;SDS011;10115;50.906;4.438;2022-12-29T16:23:24;3.40;;;3.30;;
19905;SDS011;10115;50.906;4.438;2022-12-29T16:25:52;3.50;;;3.40;;
19905;SDS011;10115;50.906;4.438;2022-12-29T16:28:21;25.63;;;6.57;;
19905;SDS011;10115;50.906;4.438;2022-12-29T16:31:16;8.20;;;6.63;;
19905;SDS011;10115;50.906;4.438;2022-12-29T16:33:48;8.30;;;7.70;;
19905;SDS011;10115;50.906;4.438;2022-12-29T16:41:55;7.37;;;7.07;;
19905;SDS011;10115;50.906;4.438;2022-12-29T16:44:24;8.63;;;7.73;;
19905;SDS011;10115;50.906;4.438;2022-12-29T16:49:26;7.17;;;6.67;;
19905;SDS011;10115;50.906;4.438;2022-12-29T16:51:54;9.80;;;9.03;;
19905;SDS011;10115;50.906;4.438;2022-12-29T16:54:33;9.83;;;8.67;;
19905;SDS011;10115;50.906;4.438;2022-12-29T16:57:01;8.13;;;7.47;;
19905;SDS011;10115;50.906;4.438;2022-12-29T16:59:32;9.77;;;7.27;;
19905;SDS011;10115;50.906;4.438;2022-12-29T17:02:01;8.87;;;8.30;;
19905;SDS011;10115;50.906;4.438;2022-12-29T17:04:32;8.23;;;7.63;;
19905;SDS011;10115;50.906;4.438;2022-12-29T17:06:58;8.23;;;7.40;;
19905;SDS011;10115;50.906;4.438;2022-12-29T17:09:25;9.50;;;8.53;;
19905;SDS011;10115;50.906;4.438;2022-12-29T17:11:52;10.27;;;9.60;;
19905;SDS011;10115;50.906;4.438;2022-12-29T17:14:23;8.03;;;7.40;;
19905;SDS011;10115;50.906;4.438;2022-12-29T17:17:04;6.70;;;6.40;;
19905;SDS011;10115;50.906;4.438;2022-12-29T17:19:36;7.07;;;6.73;;
19905;SDS011;10115;50.906;4.438;2022-12-29T17:22:08;8.23;;;7.60;;
19905;SDS011;10115;50.906;4.438;2022-12-29T17:24:36;6.33;;;6.03;;
19905;SDS011;10115;50.906;4.438;2022-12-29T17:27:02;7.70;;;7.00;;
19905;SDS011;10115;50.906;4.438;2022-12-29T17:29:32;8.13;;;7.03;;
19905;SDS011;10115;50.906;4.438;2022-12-29T17:32:01;9.53;;;5.37;;
19905;SDS011;10115;50.906;4.438;2022-12-29T17:34:29;9.63;;;7.07;;
19905;SDS011;10115;50.906;4.438;2022-12-29T17:36:56;7.47;;;6.77;;
19905;SDS011;10115;50.906;4.438;2022-12-29T17:39:22;6.03;;;5.73;;
19905;SDS011;10115;50.906;4.438;2022-12-29T17:41:47;11.37;;;5.90;;
19905;SDS011;10115;50.906;4.438;2022-12-29T17:44:17;6.50;;;6.00;;